Time;durP1;ratioP1;P1;durP2;ratioP2;P2;SDS_P1;SDS_P2;PMS_P1;PMS_P2;Temp;Humidity;BMP_temperature;BMP_pressure;BME280_temperature;BME280_humidity;BME280_pressure;Samples;Min_cycle;Max_cycle;Signal;HPM_P1;HPM_P2
2024/03/26 00:02:13;;;;;;;10.90;8.25;;;;;;;;;;5001399;28;20037;-79
2024/03/26 00:04:39;;;;;;;9.90;8.95;;;;;;;;;;5003175;28;20117;-81
2024/03/26 00:07:05;;;;;;;18.42;9.48;;;;;;;;;;5002338;28;20084;-80
2024/03/26 00:09:31;;;;;;;10.02;8.27;;;;;;;;;;5001315;28;20045;-81
2024/03/26 00:11:57;;;;;;;16.13;8.90;;;;;;;;;;5023389;28;20117;-80
2024/03/26 00:14:23;;;;;;;14.73;8.73;;;;;;;;;;5028887;28;20050;-80
2024/03/26 00:16:49;;;;;;;12.27;7.88;;;;;;;;;;5015601;28;20080;-82
2024/03/26 00:19:15;;;;;;;12.38;7.32;;;;;;;;;;5032142;28;20046;-80
2024/03/26 00:21:42;;;;;;;8.40;5.80;;;;;;;;;;5031126;28;20089;-81
2024/03/26 00:24:07;;;;;;;14.32;8.20;;;;;;;;;;5035596;28;20045;-83
2024/03/26 00:26:34;;;;;;;15.45;8.82;;;;;;;;;;5035090;28;20041;-82
2024/03/26 00:29:00;;;;;;;14.77;7.85;;;;;;;;;;5002037;28;20029;-81
2024/03/26 00:31:31;;;;;;;15.45;8.27;;;;;;;;;;5035096;28;20382;-82
2024/03/26 00:33:57;;;;;;;;;;;;;;;;;;5017215;28;20034;-81
2024/03/26 00:36:23;;;;;;;16.40;8.10;;;;;;;;;;5030204;28;19960;-82
2024/03/26 00:38:49;;;;;;;18.33;9.07;;;;;;;;;;5014622;28;20068;-82
2024/03/26 00:41:15;;;;;;;14.38;9.32;;;;;;;;;;5016649;28;20034;-82
2024/03/26 00:43:41;;;;;;;12.43;9.50;;;;;;;;;;5033035;28;20041;-82
2024/03/26 00:46:07;;;;;;;13.80;7.55;;;;;;;;;;5033302;28;20053;-82
2024/03/26 00:48:33;;;;;;;8.43;6.53;;;;;;;;;;5017967;28;20038;-81
2024/03/26 00:50:59;;;;;;;12.90;6.18;;;;;;;;;;5014973;28;20038;-81
2024/03/26 00:53:27;;;;;;;10.93;8.23;;;;;;;;;;5000152;28;20029;-81
2024/03/26 00:55:53;;;;;;;19.55;9.35;;;;;;;;;;5033539;28;20045;-81
2024/03/26 00:58:19;;;;;;;13.63;8.32;;;;;;;;;;5032720;28;20017;-81
2024/03/26 01:00:45;;;;;;;19.23;9.23;;;;;;;;;;5014768;28;20057;-82
2024/03/26 01:03:11;;;;;;;16.30;9.23;;;;;;;;;;5030783;28;20033;-81
2024/03/26 01:05:37;;;;;;;14.95;10.40;;;;;;;;;;5030798;28;20068;-81
2024/03/26 01:08:03;;;;;;;16.13;9.93;;;;;;;;;;5014114;28;20498;-82
2024/03/26 01:10:29;;;;;;;14.70;10.52;;;;;;;;;;4995414;28;20125;-82
2024/03/26 01:12:55;;;;;;;15.88;10.73;;;;;;;;;;5012477;28;20513;-82
2024/03/26 01:15:21;;;;;;;16.15;10.75;;;;;;;;;;4981598;28;20105;-82
2024/03/26 01:17:47;;;;;;;14.05;9.13;;;;;;;;;;4998543;28;20056;-83
2024/03/26 01:20:13;;;;;;;16.02;8.85;;;;;;;;;;5034000;28;20044;-81
2024/03/26 01:22:39;;;;;;;14.38;8.85;;;;;;;;;;5013577;28;20065;-81
2024/03/26 01:25:07;;;;;;;21.60;10.40;;;;;;;;;;5030108;28;20040;-83
2024/03/26 01:27:33;;;;;;;19.02;10.38;;;;;;;;;;5013415;28;20045;-81
2024/03/26 01:29:59;;;;;;;15.65;9.77;;;;;;;;;;5032371;28;20164;-81
2024/03/26 01:32:25;;;;;;;16.10;9.32;;;;;;;;;;5010364;28;20030;-81
2024/03/26 01:34:51;;;;;;;15.25;9.65;;;;;;;;;;5009997;28;20101;-81
2024/03/26 01:37:17;;;;;;;19.08;11.02;;;;;;;;;;5025847;28;20045;-80
2024/03/26 01:39:43;;;;;;;19.63;13.13;;;;;;;;;;4979067;28;20105;-80
2024/03/26 01:42:09;;;;;;;13.40;10.43;;;;;;;;;;5012685;28;20078;-80
2024/03/26 01:44:35;;;;;;;15.85;9.55;;;;;;;;;;4996777;28;20042;-80
2024/03/26 01:47:01;;;;;;;13.25;8.95;;;;;;;;;;5026143;28;20466;-81
2024/03/26 01:49:27;;;;;;;18.40;9.32;;;;;;;;;;4992177;28;20085;-81
2024/03/26 01:51:53;;;;;;;12.77;8.88;;;;;;;;;;5010906;28;20061;-81
2024/03/26 01:54:19;;;;;;;14.88;9.15;;;;;;;;;;5010986;28;20048;-81
2024/03/26 01:56:45;;;;;;;21.38;8.30;;;;;;;;;;5011487;28;20085;-81
2024/03/26 01:59:11;;;;;;;11.38;9.02;;;;;;;;;;5015034;28;20054;-80
2024/03/26 02:01:37;;;;;;;18.90;10.77;;;;;;;;;;5030748;28;20090;-80
2024/03/26 02:04:03;;;;;;;16.63;9.90;;;;;;;;;;5008551;28;20060;-80
2024/03/26 02:06:29;;;;;;;13.50;8.45;;;;;;;;;;4991385;28;20042;-81
2024/03/26 02:08:57;;;;;;;13.50;8.50;;;;;;;;;;5010265;28;20428;-81
2024/03/26 02:11:24;;;;;;;13.05;9.88;;;;;;;;;;5011749;28;20085;-81
2024/03/26 02:13:50;;;;;;;14.43;10.32;;;;;;;;;;5032379;28;20034;-81
2024/03/26 02:16:16;;;;;;;12.27;7.95;;;;;;;;;;5011830;28;20049;-81
2024/03/26 02:18:42;;;;;;;14.23;8.07;;;;;;;;;;5004643;28;20612;-80
2024/03/26 02:21:08;;;;;;;10.07;8.90;;;;;;;;;;5006625;28;20048;-81
2024/03/26 02:23:34;;;;;;;11.90;9.25;;;;;;;;;;5014250;28;20065;-81
2024/03/26 02:26:00;;;;;;;13.65;9.60;;;;;;;;;;4996412;28;20050;-82
2024/03/26 02:28:26;;;;;;;11.93;9.00;;;;;;;;;;5013050;28;20041;-82
2024/03/26 02:30:52;;;;;;;14.63;8.80;;;;;;;;;;5031114;28;20014;-82
2024/03/26 02:33:18;;;;;;;11.73;8.52;;;;;;;;;;5030313;28;20061;-81
2024/03/26 02:35:43;;;;;;;10.70;7.82;;;;;;;;;;4994019;28;20065;-82
2024/03/26 02:38:09;;;;;;;13.50;8.88;;;;;;;;;;5013420;28;20030;-82
2024/03/26 02:40:35;;;;;;;9.80;8.70;;;;;;;;;;5013220;28;20527;-80
2024/03/26 02:43:01;;;;;;;12.57;8.23;;;;;;;;;;5026117;28;20038;-81
2024/03/26 02:45:27;;;;;;;11.30;8.73;;;;;;;;;;5007402;28;20037;-72
2024/03/26 02:47:53;;;;;;;10.95;9.52;;;;;;;;;;5027996;28;20034;-80
2024/03/26 02:50:19;;;;;;;15.48;9.73;;;;;;;;;;5010730;28;20112;-81
2024/03/26 02:52:45;;;;;;;17.90;8.75;;;;;;;;;;4992311;28;20057;-81
2024/03/26 02:55:11;;;;;;;13.73;8.85;;;;;;;;;;5025649;28;20038;-82
2024/03/26 02:57:37;;;;;;;18.58;10.10;;;;;;;;;;5035159;28;20061;-84
2024/03/26 03:00:05;;;;;;;12.88;8.93;;;;;;;;;;4986237;28;20033;-85
2024/03/26 03:02:32;;;;;;;9.75;8.70;;;;;;;;;;5034911;28;20022;-81
2024/03/26 03:04:57;;;;;;;20.52;9.18;;;;;;;;;;5001707;28;20110;-86
2024/03/26 03:07:23;;;;;;;11.20;8.35;;;;;;;;;;5076582;22;20018;-84
2024/03/26 03:09:49;;;;;;;16.83;8.27;;;;;;;;;;5018066;28;20026;-85
2024/03/26 03:12:15;;;;;;;10.77;8.38;;;;;;;;;;5001777;28;20120;-84
2024/03/26 03:14:41;;;;;;;12.45;10.55;;;;;;;;;;5035663;28;20034;-84
2024/03/26 03:17:07;;;;;;;12.77;10.43;;;;;;;;;;5033398;28;20050;-84
2024/03/26 03:19:33;;;;;;;10.93;8.48;;;;;;;;;;5008974;28;20106;-83
2024/03/26 03:21:59;;;;;;;10.15;9.25;;;;;;;;;;4987977;28;20038;-81
2024/03/26 03:24:26;;;;;;;12.02;9.77;;;;;;;;;;5011123;28;20038;-84
2024/03/26 03:26:52;;;;;;;12.30;10.07;;;;;;;;;;5025419;28;20136;-81
2024/03/26 03:29:18;;;;;;;13.75;10.32;;;;;;;;;;5020121;28;20065;-82
2024/03/26 03:31:43;;;;;;;20.40;11.38;;;;;;;;;;5017931;28;20038;-83
2024/03/26 03:34:09;;;;;;;22.23;11.90;;;;;;;;;;5019190;28;20041;-82
2024/03/26 03:36:35;;;;;;;15.07;11.45;;;;;;;;;;5017556;28;20046;-82
2024/03/26 03:39:01;;;;;;;16.50;14.68;;;;;;;;;;5035774;28;20057;-82
2024/03/26 03:41:27;;;;;;;18.60;11.38;;;;;;;;;;5031992;28;20053;-81
2024/03/26 03:43:53;;;;;;;19.67;13.15;;;;;;;;;;5029716;28;20042;-82
2024/03/26 03:46:19;;;;;;;19.17;12.77;;;;;;;;;;5029184;28;20069;-81
2024/03/26 03:48:45;;;;;;;19.30;13.25;;;;;;;;;;5027681;28;20121;-81
2024/03/26 03:51:11;;;;;;;18.15;11.52;;;;;;;;;;5008628;28;20033;-78
2024/03/26 03:53:36;;;;;;;16.25;12.60;;;;;;;;;;4989829;28;20034;-80
2024/03/26 03:56:02;;;;;;;18.98;11.82;;;;;;;;;;5021730;28;20049;-79
2024/03/26 03:58:28;;;;;;;12.90;11.52;;;;;;;;;;5020874;28;20042;-81
2024/03/26 04:00:54;;;;;;;19.17;12.55;;;;;;;;;;4988651;28;20164;-80
2024/03/26 04:03:20;;;;;;;16.27;11.75;;;;;;;;;;4994463;28;20121;-82
2024/03/26 04:05:46;;;;;;;14.73;11.07;;;;;;;;;;5014020;28;20045;-81
2024/03/26 04:08:12;;;;;;;17.08;12.35;;;;;;;;;;5009578;28;20062;-82
2024/03/26 04:10:39;;;;;;;13.55;11.25;;;;;;;;;;5005105;28;20030;-81
2024/03/26 04:13:05;;;;;;;17.48;12.27;;;;;;;;;;4999668;28;20122;-81
2024/03/26 04:15:31;;;;;;;17.48;11.60;;;;;;;;;;5006631;28;20030;-79
2024/03/26 04:17:57;;;;;;;11.38;9.82;;;;;;;;;;5013272;28;20048;-82
2024/03/26 04:20:23;;;;;;;15.98;13.35;;;;;;;;;;5012732;28;20073;-82
2024/03/26 04:22:49;;;;;;;13.02;11.68;;;;;;;;;;5012128;28;20033;-81
2024/03/26 04:25:15;;;;;;;14.13;12.45;;;;;;;;;;5008351;28;20066;-82
2024/03/26 04:27:41;;;;;;;15.15;12.50;;;;;;;;;;5006171;28;20125;-82
2024/03/26 04:30:08;;;;;;;17.55;11.00;;;;;;;;;;5007049;28;20038;-82
2024/03/26 04:32:35;;;;;;;16.23;11.55;;;;;;;;;;5006395;28;20045;-82
2024/03/26 04:35:01;;;;;;;13.93;9.90;;;;;;;;;;5015677;28;20049;-82
2024/03/26 04:37:27;;;;;;;13.77;9.50;;;;;;;;;;5015511;28;20129;-83
2024/03/26 04:39:53;;;;;;;14.43;10.80;;;;;;;;;;5000721;28;20078;-78
2024/03/26 04:42:20;;;;;;;16.45;11.40;;;;;;;;;;4995518;28;20038;-81
2024/03/26 04:44:46;;;;;;;16.27;10.07;;;;;;;;;;5008761;28;20065;-80
2024/03/26 04:47:12;;;;;;;12.73;9.82;;;;;;;;;;5006874;28;20054;-78
2024/03/26 04:49:37;;;;;;;14.57;10.68;;;;;;;;;;5008354;28;20053;-81
2024/03/26 04:52:03;;;;;;;14.50;10.73;;;;;;;;;;4989786;28;20034;-81
2024/03/26 04:54:29;;;;;;;11.38;10.15;;;;;;;;;;4974393;28;20030;-81
2024/03/26 04:56:55;;;;;;;13.90;9.70;;;;;;;;;;5005213;28;20042;-80
2024/03/26 04:59:21;;;;;;;12.18;9.60;;;;;;;;;;5006383;28;20076;-81
2024/03/26 05:01:48;;;;;;;15.00;10.57;;;;;;;;;;5007217;28;20038;-83
2024/03/26 05:04:17;;;;;;;10.85;8.50;;;;;;;;;;5007859;28;20041;-83
2024/03/26 05:06:43;;;;;;;17.15;9.68;;;;;;;;;;5016139;28;20046;-84
2024/03/26 05:09:12;;;;;;;17.30;9.48;;;;;;;;;;5016843;28;20048;-84
2024/03/26 05:11:37;;;;;;;15.93;10.23;;;;;;;;;;5015466;28;20046;-82
2024/03/26 05:14:04;;;;;;;13.02;8.25;;;;;;;;;;5013440;28;20038;-82
2024/03/26 05:16:30;;;;;;;13.85;10.52;;;;;;;;;;5013322;28;20073;-83
2024/03/26 05:18:56;;;;;;;11.40;9.25;;;;;;;;;;4996382;28;20089;-83
2024/03/26 05:21:22;;;;;;;11.38;8.55;;;;;;;;;;5010608;28;20077;-80
2024/03/26 05:23:48;;;;;;;13.52;9.88;;;;;;;;;;5001900;28;20026;-80
2024/03/26 05:26:17;;;;;;;10.13;9.00;;;;;;;;;;4986848;28;20107;-79
2024/03/26 05:28:43;;;;;;;12.27;9.77;;;;;;;;;;4974173;28;20074;-79
2024/03/26 05:31:19;;;;;;;15.38;8.75;;;;;;;;;;4973805;28;20037;-78
2024/03/26 05:33:45;;;;;;;18.65;7.43;;;;;;;;;;4957851;28;20134;-79
2024/03/26 05:36:12;;;;;;;11.02;8.50;;;;;;;;;;4974569;28;20138;-78
2024/03/26 05:38:38;;;;;;;15.50;7.78;;;;;;;;;;4978721;28;20045;-78
2024/03/26 05:41:03;;;;;;;9.95;7.97;;;;;;;;;;4973751;28;20605;-79
2024/03/26 05:43:29;;;;;;;8.63;6.80;;;;;;;;;;4990898;28;20094;-78
2024/03/26 05:45:55;;;;;;;12.00;7.07;;;;;;;;;;4991706;28;20065;-78
2024/03/26 05:48:21;;;;;;;10.80;5.93;;;;;;;;;;4993338;28;20031;-80
2024/03/26 05:50:47;;;;;;;8.07;7.00;;;;;;;;;;4985451;28;20568;-78
2024/03/26 05:53:13;;;;;;;7.60;6.30;;;;;;;;;;4986301;28;20125;-80
2024/03/26 05:55:39;;;;;;;12.63;6.78;;;;;;;;;;4987073;28;20046;-77
2024/03/26 05:58:05;;;;;;;10.43;7.70;;;;;;;;;;4994112;28;20547;-78
2024/03/26 06:00:31;;;;;;;8.05;6.25;;;;;;;;;;4981595;28;20129;-78
2024/03/26 06:02:56;;;;;;;9.70;6.45;;;;;;;;;;4984142;28;20407;-77
2024/03/26 06:05:22;;;;;;;8.30;6.30;;;;;;;;;;4999492;28;20034;-84
2024/03/26 06:07:48;;;;;;;9.45;6.18;;;;;;;;;;4998296;28;20529;-79
2024/03/26 06:10:14;;;;;;;10.73;6.78;;;;;;;;;;5005114;28;20037;-78
2024/03/26 06:12:41;;;;;;;8.63;5.15;;;;;;;;;;4957192;28;20130;-79
2024/03/26 06:15:07;;;;;;;7.05;5.78;;;;;;;;;;5009000;28;20061;-81
2024/03/26 06:17:33;;;;;;;9.35;5.88;;;;;;;;;;4998537;28;20204;-79
2024/03/26 06:19:59;;;;;;;9.68;6.28;;;;;;;;;;4978541;28;20062;-78
2024/03/26 06:22:25;;;;;;;8.65;6.22;;;;;;;;;;4992715;28;20487;-78
2024/03/26 06:24:51;;;;;;;6.88;5.57;;;;;;;;;;4991951;28;20474;-77
2024/03/26 06:27:17;;;;;;;10.02;6.60;;;;;;;;;;5007995;28;20676;-79
2024/03/26 06:29:43;;;;;;;8.23;6.50;;;;;;;;;;4990846;28;20034;-79
2024/03/26 06:32:09;;;;;;;10.25;6.07;;;;;;;;;;5009184;28;20026;-79
2024/03/26 06:34:36;;;;;;;10.82;6.35;;;;;;;;;;5006669;28;20060;-78
2024/03/26 06:37:03;;;;;;;8.65;5.32;;;;;;;;;;5008505;28;20046;-77
2024/03/26 06:39:28;;;;;;;8.25;5.60;;;;;;;;;;5003988;28;20505;-79
2024/03/26 06:41:54;;;;;;;7.88;5.35;;;;;;;;;;4986451;28;20129;-78
2024/03/26 06:44:20;;;;;;;8.70;5.88;;;;;;;;;;5006414;28;20042;-78
2024/03/26 06:46:46;;;;;;;9.48;6.05;;;;;;;;;;4976390;28;20081;-77
2024/03/26 06:49:12;;;;;;;11.25;7.03;;;;;;;;;;4991414;28;20052;-76
2024/03/26 06:51:39;;;;;;;9.38;6.47;;;;;;;;;;4978099;28;20497;-78
2024/03/26 06:54:06;;;;;;;13.52;6.85;;;;;;;;;;5003222;28;20030;-79
2024/03/26 06:56:32;;;;;;;16.00;7.78;;;;;;;;;;5021945;28;20060;-78
2024/03/26 06:58:58;;;;;;;9.13;6.00;;;;;;;;;;5007738;28;20457;-81
2024/03/26 07:01:24;;;;;;;8.95;6.20;;;;;;;;;;5013780;28;20034;-82
2024/03/26 07:03:51;;;;;;;9.57;5.90;;;;;;;;;;5013421;28;20033;-82
2024/03/26 07:06:16;;;;;;;7.15;5.60;;;;;;;;;;5029893;28;20077;-83
2024/03/26 07:08:43;;;;;;;6.38;5.35;;;;;;;;;;5011949;28;20058;-81
2024/03/26 07:11:09;;;;;;;16.65;5.53;;;;;;;;;;5008734;28;20060;-80
2024/03/26 07:13:35;;;;;;;8.40;4.35;;;;;;;;;;5007915;28;20062;-80
2024/03/26 07:16:01;;;;;;;5.68;4.43;;;;;;;;;;5009253;28;20046;-83
2024/03/26 07:18:27;;;;;;;6.63;5.43;;;;;;;;;;5008131;28;20144;-81
2024/03/26 07:20:54;;;;;;;7.18;4.63;;;;;;;;;;5011079;28;20034;-80
2024/03/26 07:23:19;;;;;;;7.60;3.45;;;;;;;;;;4995319;28;20062;-82
2024/03/26 07:25:46;;;;;;;7.03;4.70;;;;;;;;;;5014387;28;20034;-82
2024/03/26 07:28:12;;;;;;;7.82;4.30;;;;;;;;;;5008547;28;20398;-79
2024/03/26 07:30:38;;;;;;;4.53;3.65;;;;;;;;;;5004475;28;20038;-81
2024/03/26 07:33:04;;;;;;;6.20;3.67;;;;;;;;;;4977252;28;20077;-83
2024/03/26 07:35:30;;;;;;;4.63;3.55;;;;;;;;;;5010750;28;20038;-81
2024/03/26 07:37:56;;;;;;;5.07;4.32;;;;;;;;;;4996740;28;20077;-81
2024/03/26 07:40:21;;;;;;;6.75;4.00;;;;;;;;;;5014277;28;20025;-79
2024/03/26 07:42:47;;;;;;;3.90;3.55;;;;;;;;;;5011515;28;20144;-80
2024/03/26 07:45:13;;;;;;;5.28;3.78;;;;;;;;;;5011904;28;20049;-81
2024/03/26 07:47:39;;;;;;;6.25;3.83;;;;;;;;;;5013158;28;20042;-82
2024/03/26 07:50:05;;;;;;;3.47;2.63;;;;;;;;;;5000753;28;20465;-79
2024/03/26 07:52:31;;;;;;;3.17;2.90;;;;;;;;;;4989353;28;20030;-80
2024/03/26 07:54:57;;;;;;;3.35;2.22;;;;;;;;;;4998619;28;20034;-81
2024/03/26 07:57:22;;;;;;;3.83;2.63;;;;;;;;;;5003987;28;20042;-80
2024/03/26 07:59:48;;;;;;;3.25;2.70;;;;;;;;;;5010844;28;20050;-81
2024/03/26 08:02:33;;;;;;;2.95;2.50;;;;;;;;;;4982935;28;20031;-81
2024/03/26 08:04:59;;;;;;;3.75;2.63;;;;;;;;;;4990291;28;20038;-81
2024/03/26 08:07:25;;;;;;;7.70;3.78;;;;;;;;;;4989155;28;20054;-80
2024/03/26 08:09:51;;;;;;;3.38;3.10;;;;;;;;;;4975987;28;20090;-81
2024/03/26 08:12:17;;;;;;;7.65;3.28;;;;;;;;;;4994292;28;20049;-81
2024/03/26 08:14:45;;;;;;;4.53;3.47;;;;;;;;;;4992895;28;20403;-80
2024/03/26 08:17:12;;;;;;;2.42;2.22;;;;;;;;;;4994390;28;20065;-79
2024/03/26 08:19:37;;;;;;;4.13;3.40;;;;;;;;;;5033984;28;20041;-79
2024/03/26 08:22:03;;;;;;;4.63;3.17;;;;;;;;;;5011064;28;20030;-80
2024/03/26 08:24:29;;;;;;;4.25;3.83;;;;;;;;;;4991543;28;20037;-80
2024/03/26 08:26:55;;;;;;;4.47;3.50;;;;;;;;;;5032757;28;20041;-80
2024/03/26 08:29:21;;;;;;;2.85;2.60;;;;;;;;;;5025254;28;20355;-80
2024/03/26 08:31:47;;;;;;;7.53;3.38;;;;;;;;;;5006274;28;20509;-79
2024/03/26 08:34:13;;;;;;;6.65;5.10;;;;;;;;;;5028389;28;20099;-79
2024/03/26 08:36:40;;;;;;;4.63;3.95;;;;;;;;;;5033715;28;20041;-80
2024/03/26 08:39:09;;;;;;;7.07;4.35;;;;;;;;;;5031307;28;20192;-79
2024/03/26 08:41:36;;;;;;;6.85;4.13;;;;;;;;;;5001644;28;20037;-79
2024/03/26 08:44:03;;;;;;;3.55;3.00;;;;;;;;;;5023130;28;20064;-81
2024/03/26 08:46:30;;;;;;;3.95;3.05;;;;;;;;;;5018432;28;20066;-82
2024/03/26 08:48:55;;;;;;;3.03;2.50;;;;;;;;;;5021074;28;20038;-80
2024/03/26 08:51:27;;;;;;;3.25;2.70;;;;;;;;;;5038821;28;20037;-82
2024/03/26 08:53:57;;;;;;;5.03;3.35;;;;;;;;;;5019591;28;20042;-81
2024/03/26 08:56:25;;;;;;;2.30;2.10;;;;;;;;;;5020291;28;20060;-81
2024/03/26 08:58:52;;;;;;;3.03;2.78;;;;;;;;;;5015199;28;20098;-81
2024/03/26 09:01:18;;;;;;;3.78;2.40;;;;;;;;;;5035883;28;20042;-79
2024/03/26 09:03:44;;;;;;;2.53;2.33;;;;;;;;;;5001406;28;20583;-81
2024/03/26 09:06:28;;;;;;;3.78;2.80;;;;;;;;;;5016966;28;20057;-80
2024/03/26 09:08:55;;;;;;;2.92;1.98;;;;;;;;;;5032062;28;20072;-81
2024/03/26 09:11:24;;;;;;;2.72;2.50;;;;;;;;;;5023324;28;20033;-80
2024/03/26 09:13:50;;;;;;;2.92;2.72;;;;;;;;;;5030373;28;20029;-80
2024/03/26 09:16:17;;;;;;;2.33;2.20;;;;;;;;;;5008170;28;20085;-81
2024/03/26 09:18:43;;;;;;;2.67;2.40;;;;;;;;;;5031774;28;20041;-81
2024/03/26 09:21:10;;;;;;;2.55;2.35;;;;;;;;;;5031593;28;20040;-81
2024/03/26 09:23:37;;;;;;;2.55;2.28;;;;;;;;;;5015405;28;20033;-80
2024/03/26 09:26:03;;;;;;;3.05;2.42;;;;;;;;;;5016106;28;20045;-81
2024/03/26 09:28:29;;;;;;;2.70;2.50;;;;;;;;;;5008833;28;20038;-81
2024/03/26 09:30:55;;;;;;;2.38;2.17;;;;;;;;;;5035012;28;20061;-81
2024/03/26 09:33:21;;;;;;;3.22;2.90;;;;;;;;;;5030342;28;20057;-79
2024/03/26 09:35:47;;;;;;;3.13;2.60;;;;;;;;;;5035646;28;20087;-80
2024/03/26 09:38:13;;;;;;;2.72;2.60;;;;;;;;;;4974612;28;20054;-79
2024/03/26 09:40:39;;;;;;;2.53;2.28;;;;;;;;;;5012907;28;20025;-81
2024/03/26 09:43:09;;;;;;;2.70;2.50;;;;;;;;;;5010708;28;20032;-81
2024/03/26 09:45:35;;;;;;;3.90;2.47;;;;;;;;;;5012292;28;20037;-81
2024/03/26 09:48:01;;;;;;;4.07;2.80;;;;;;;;;;4996047;28;20348;-82
2024/03/26 09:50:28;;;;;;;2.72;2.50;;;;;;;;;;5013531;28;20066;-81
2024/03/26 09:52:54;;;;;;;5.75;2.50;;;;;;;;;;5000420;28;20051;-81
2024/03/26 09:55:20;;;;;;;2.50;2.30;;;;;;;;;;4989609;28;20037;-80
2024/03/26 09:57:45;;;;;;;2.60;2.40;;;;;;;;;;5009256;28;20045;-81
2024/03/26 10:00:11;;;;;;;4.00;2.00;;;;;;;;;;5008816;28;20037;-81
2024/03/26 10:02:37;;;;;;;2.38;2.17;;;;;;;;;;5022644;28;20037;-81
2024/03/26 10:05:03;;;;;;;2.97;2.13;;;;;;;;;;5007033;28;20029;-81
2024/03/26 10:07:30;;;;;;;1.90;1.80;;;;;;;;;;5027898;28;20047;-81
2024/03/26 10:10:15;;;;;;;2.20;2.10;;;;;;;;;;5005612;28;20033;-81
2024/03/26 10:12:41;;;;;;;6.85;2.33;;;;;;;;;;5030818;28;20021;-80
2024/03/26 10:15:08;;;;;;;2.67;1.88;;;;;;;;;;5031436;28;20445;-80
2024/03/26 10:17:34;;;;;;;4.53;2.35;;;;;;;;;;5014649;28;20100;-80
2024/03/26 10:20:00;;;;;;;3.20;2.30;;;;;;;;;;5031455;28;20056;-81
2024/03/26 10:22:26;;;;;;;4.55;2.53;;;;;;;;;;5013119;28;20034;-81
2024/03/26 10:24:52;;;;;;;3.28;2.40;;;;;;;;;;5011300;28;20033;-81
2024/03/26 10:27:18;;;;;;;4.82;2.90;;;;;;;;;;5010080;28;20080;-81
2024/03/26 10:29:44;;;;;;;4.45;2.88;;;;;;;;;;5000622;28;20334;-81
2024/03/26 10:32:11;;;;;;;5.03;2.67;;;;;;;;;;5018455;28;20068;-81
2024/03/26 10:34:36;;;;;;;3.15;2.85;;;;;;;;;;4986770;28;20049;-80
2024/03/26 10:37:02;;;;;;;2.30;2.20;;;;;;;;;;5015039;28;20071;-81
2024/03/26 10:39:31;;;;;;;3.00;2.70;;;;;;;;;;5023404;28;20048;-82
2024/03/26 10:41:57;;;;;;;2.58;2.38;;;;;;;;;;5034935;28;20026;-81
2024/03/26 10:44:23;;;;;;;2.72;2.50;;;;;;;;;;5022821;28;20118;-82
2024/03/26 10:46:49;;;;;;;4.43;2.70;;;;;;;;;;5016533;28;20056;-81
2024/03/26 10:49:15;;;;;;;4.63;2.78;;;;;;;;;;5021297;28;20034;-81
2024/03/26 10:51:41;;;;;;;4.30;2.55;;;;;;;;;;5025797;28;20028;-81
2024/03/26 10:54:07;;;;;;;2.55;2.33;;;;;;;;;;5027127;28;20041;-82
2024/03/26 10:56:33;;;;;;;8.45;5.70;;;;;;;;;;4992807;28;20431;-79
2024/03/26 10:58:58;;;;;;;3.45;3.13;;;;;;;;;;4982138;28;20050;-82
2024/03/26 11:01:25;;;;;;;3.22;2.60;;;;;;;;;;5024351;28;20105;-83
2024/03/26 11:03:50;;;;;;;2.92;2.72;;;;;;;;;;5044661;28;20036;-82
2024/03/26 11:06:23;;;;;;;4.53;2.75;;;;;;;;;;5001886;28;20034;-81
2024/03/26 11:08:56;;;;;;;4.70;2.17;;;;;;;;;;5025298;28;20091;-82
2024/03/26 11:11:22;;;;;;;3.28;2.50;;;;;;;;;;5020105;28;20416;-80
2024/03/26 11:13:54;;;;;;;5.03;2.47;;;;;;;;;;5038250;28;20053;-81
2024/03/26 11:16:33;;;;;;;3.65;2.28;;;;;;;;;;5032308;28;20050;-83
2024/03/26 11:19:01;;;;;;;3.13;2.10;;;;;;;;;;5038175;28;20129;-82
2024/03/26 11:21:39;;;;;;;3.05;2.28;;;;;;;;;;5033497;28;20029;-82
2024/03/26 11:24:05;;;;;;;2.72;2.50;;;;;;;;;;5027967;28;20030;-83
2024/03/26 11:26:31;;;;;;;2.75;2.55;;;;;;;;;;5035774;28;20054;-81
2024/03/26 11:29:00;;;;;;;3.70;2.22;;;;;;;;;;5010128;28;20033;-81
2024/03/26 11:31:26;;;;;;;2.75;2.53;;;;;;;;;;5036342;28;20390;-80
2024/03/26 11:33:52;;;;;;;2.97;2.38;;;;;;;;;;4988986;28;20029;-80
2024/03/26 11:36:18;;;;;;;3.53;2.03;;;;;;;;;;5010739;28;20063;-80
2024/03/26 11:38:44;;;;;;;3.22;2.22;;;;;;;;;;5033105;28;20039;-81
2024/03/26 11:41:10;;;;;;;2.53;2.33;;;;;;;;;;5032474;28;20124;-80
2024/03/26 11:43:36;;;;;;;2.60;2.40;;;;;;;;;;5035677;28;20069;-82
2024/03/26 11:46:02;;;;;;;3.67;2.35;;;;;;;;;;5015693;28;20050;-81
2024/03/26 11:48:28;;;;;;;5.90;2.58;;;;;;;;;;5038319;28;20041;-81
2024/03/26 11:50:54;;;;;;;4.32;2.63;;;;;;;;;;5030716;28;20057;-79
2024/03/26 11:53:20;;;;;;;3.63;2.70;;;;;;;;;;4996914;28;20172;-80
2024/03/26 11:55:46;;;;;;;2.90;2.50;;;;;;;;;;5035444;28;20033;-80
2024/03/26 11:58:12;;;;;;;2.70;2.50;;;;;;;;;;5005403;28;20049;-82
2024/03/26 12:00:38;;;;;;;3.90;2.60;;;;;;;;;;5046131;28;20033;-80
2024/03/26 12:03:08;;;;;;;3.63;2.40;;;;;;;;;;5015937;28;20038;-81
2024/03/26 12:05:34;;;;;;;3.10;2.80;;;;;;;;;;5020764;28;20033;-80
2024/03/26 12:08:00;;;;;;;3.92;2.63;;;;;;;;;;5039542;28;20144;-82
2024/03/26 12:10:26;;;;;;;3.60;2.35;;;;;;;;;;5036479;28;20033;-81
2024/03/26 12:12:54;;;;;;;4.43;2.72;;;;;;;;;;5030756;28;20084;-80
2024/03/26 12:15:20;;;;;;;2.50;2.35;;;;;;;;;;5036657;28;20033;-80
2024/03/26 12:17:46;;;;;;;2.58;2.38;;;;;;;;;;5016463;28;20061;-82
2024/03/26 12:20:12;;;;;;;3.05;2.50;;;;;;;;;;5023197;28;20038;-81
2024/03/26 12:22:40;;;;;;;3.33;2.80;;;;;;;;;;5026853;28;20033;-80
2024/03/26 12:25:06;;;;;;;3.30;3.03;;;;;;;;;;5020576;28;20046;-81
2024/03/26 12:27:32;;;;;;;2.80;2.60;;;;;;;;;;5020866;28;20046;-80
2024/03/26 12:29:58;;;;;;;3.70;3.10;;;;;;;;;;5029776;28;20042;-80
2024/03/26 12:32:27;;;;;;;3.47;3.15;;;;;;;;;;5033254;28;20036;-81
2024/03/26 12:34:53;;;;;;;3.70;3.40;;;;;;;;;;5019189;28;20529;-78
2024/03/26 12:37:20;;;;;;;3.80;3.50;;;;;;;;;;5018877;28;20064;-80
2024/03/26 12:39:46;;;;;;;3.95;3.40;;;;;;;;;;5042370;28;20099;-81
2024/03/26 12:42:12;;;;;;;3.92;3.60;;;;;;;;;;5021721;28;20041;-81
2024/03/26 12:44:38;;;;;;;4.30;3.38;;;;;;;;;;5036172;28;20040;-81
2024/03/26 12:47:03;;;;;;;3.28;3.05;;;;;;;;;;5034465;28;20030;-82
2024/03/26 12:49:31;;;;;;;4.80;3.63;;;;;;;;;;5016786;28;20057;-80
2024/03/26 12:51:57;;;;;;;3.65;3.30;;;;;;;;;;5042147;28;20037;-81
2024/03/26 12:54:23;;;;;;;3.47;3.17;;;;;;;;;;5012216;28;20053;-81
2024/03/26 12:56:49;;;;;;;3.72;3.40;;;;;;;;;;5017951;28;20038;-82
2024/03/26 12:59:15;;;;;;;3.33;2.70;;;;;;;;;;5014286;28;20068;-81
2024/03/26 13:01:41;;;;;;;3.35;3.05;;;;;;;;;;5007104;28;20050;-80
2024/03/26 13:04:13;;;;;;;3.28;2.75;;;;;;;;;;4980230;28;20065;-81
2024/03/26 13:06:39;;;;;;;3.60;2.90;;;;;;;;;;4995927;28;20065;-80
2024/03/26 13:09:06;;;;;;;9.27;2.78;;;;;;;;;;5016828;28;20061;-81
2024/03/26 13:11:34;;;;;;;3.47;3.00;;;;;;;;;;5035280;28;20018;-80
2024/03/26 13:14:03;;;;;;;4.03;2.72;;;;;;;;;;5020902;28;20045;-82
2024/03/26 13:16:30;;;;;;;2.72;2.35;;;;;;;;;;5030552;28;20095;-80
2024/03/26 13:18:57;;;;;;;3.05;2.75;;;;;;;;;;5029453;28;20100;-81
2024/03/26 13:21:23;;;;;;;3.78;2.83;;;;;;;;;;5015176;28;20056;-81
2024/03/26 13:23:49;;;;;;;2.90;2.40;;;;;;;;;;5026706;28;20037;-80
2024/03/26 13:26:17;;;;;;;5.22;2.80;;;;;;;;;;5011886;28;20038;-80
2024/03/26 13:28:43;;;;;;;3.50;2.80;;;;;;;;;;4991390;28;20060;-80
2024/03/26 13:31:08;;;;;;;3.70;2.30;;;;;;;;;;5032653;28;20096;-80
2024/03/26 13:33:36;;;;;;;6.22;2.58;;;;;;;;;;4992578;28;20233;-81
2024/03/26 13:36:02;;;;;;;2.75;2.30;;;;;;;;;;5021665;28;20052;-80
2024/03/26 13:38:28;;;;;;;3.80;2.80;;;;;;;;;;5016121;28;20046;-81
2024/03/26 13:40:54;;;;;;;4.43;2.92;;;;;;;;;;4999536;28;20052;-80
2024/03/26 13:43:20;;;;;;;5.28;2.50;;;;;;;;;;5037165;28;20029;-82
2024/03/26 13:45:47;;;;;;;4.13;2.17;;;;;;;;;;5008472;28;20068;-81
2024/03/26 13:48:14;;;;;;;3.13;2.47;;;;;;;;;;5029899;28;20089;-79
2024/03/26 13:50:40;;;;;;;3.40;2.90;;;;;;;;;;5010699;28;20386;-82
2024/03/26 13:53:07;;;;;;;3.03;2.83;;;;;;;;;;5031215;28;20037;-82
2024/03/26 13:58:21;;;;;;;2.80;2.47;;;;;;;;;;5018436;28;20056;-81
2024/03/26 14:00:47;;;;;;;4.20;2.40;;;;;;;;;;5011249;28;20136;-81
2024/03/26 14:03:13;;;;;;;4.10;2.45;;;;;;;;;;5014781;28;20044;-81
2024/03/26 14:05:39;;;;;;;6.68;2.22;;;;;;;;;;5031256;28;20033;-82
2024/03/26 14:08:05;;;;;;;2.40;2.20;;;;;;;;;;5011621;28;20092;-80
2024/03/26 14:10:31;;;;;;;4.15;2.30;;;;;;;;;;5036666;28;20448;-80
2024/03/26 14:12:58;;;;;;;3.30;2.55;;;;;;;;;;5028590;28;20055;-80
2024/03/26 14:15:25;;;;;;;2.63;2.42;;;;;;;;;;5031015;28;20037;-82
2024/03/26 14:17:53;;;;;;;2.50;2.30;;;;;;;;;;4997401;28;20069;-81
2024/03/26 14:20:23;;;;;;;3.75;2.40;;;;;;;;;;5031341;28;20110;-80
2024/03/26 14:22:49;;;;;;;2.30;1.80;;;;;;;;;;5004541;28;20034;-80
2024/03/26 14:25:18;;;;;;;4.35;2.42;;;;;;;;;;5029628;28;20083;-81
2024/03/26 14:27:47;;;;;;;2.40;2.00;;;;;;;;;;5001974;28;20050;-81
2024/03/26 14:30:18;;;;;;;3.40;2.10;;;;;;;;;;5039437;28;20064;-82
2024/03/26 14:32:44;;;;;;;2.47;2.28;;;;;;;;;;5029716;28;20089;-83
2024/03/26 14:35:13;;;;;;;3.28;2.20;;;;;;;;;;5030631;28;20030;-82